Terminal Aerodrome Forecast
Issued by NWS

Home | Current Version | Previous Version | Graphics & Text | Print | Product List | Glossary On
Versions: 1 2 3 4 5 6 7 8 9 10 11 12 13 14
000
FTUS45 KGGW 140520
TAFOLF
TAF
KOLF 140520Z 1406/1506 10009KT P6SM FEW220
     FM140900 10008KT P6SM BKN140
     FM141200 10008KT P6SM VCSH OVC110
     FM141600 14009KT P6SM VCSH OVC090
     FM142100 12007KT P6SM -SHRA OVC040
     FM150000 08008KT P6SM VCSH BKN060=

USA.gov is the U.S. government's official web portal to all federal, state and local government web resources and services.